Terminal Aerodrome Forecast
Issued by NWS Wichita, KS

Home | Current Version | Previous Version | Text Only | Print | Product List | Glossary On
Versions: 1 2 3 4 5 6 7 8 9 10 11 12 13 14 15
000
FTUS43 KICT 142344
TAFICT
TAF
KICT 142344Z 1500/1524 33009KT P6SM SCT025 BKN045
     FM151300 28007KT P6SM SKC
     FM151600 23007KT P6SM SKC
     FM151800 23011KT P6SM SKC=

USA.gov is the U.S. government's official web portal to all federal, state and local government web resources and services.